sensor_id;sensor_type;location;lat;lon;timestamp;temperature;humidity
78028;DHT22;67235;45.638;11.714;2023-03-01T00:02:04;4.90;62.60
78028;DHT22;67235;45.638;11.714;2023-03-01T00:04:30;5.20;62.60
78028;DHT22;67235;45.638;11.714;2023-03-01T00:06:56;5.00;63.00
78028;DHT22;67235;45.638;11.714;2023-03-01T00:09:22;4.80;63.10
78028;DHT22;67235;45.638;11.714;2023-03-01T00:11:48;5.00;63.10
78028;DHT22;67235;45.638;11.714;2023-03-01T00:14:14;4.80;63.00
78028;DHT22;67235;45.638;11.714;2023-03-01T00:16:44;4.90;63.00
78028;DHT22;67235;45.638;11.714;2023-03-01T00:19:13;4.80;63.00
78028;DHT22;67235;45.638;11.714;2023-03-01T00:21:40;5.00;63.10
78028;DHT22;67235;45.638;11.714;2023-03-01T00:24:06;5.00;62.80
78028;DHT22;67235;45.638;11.714;2023-03-01T00:26:32;4.70;62.90
78028;DHT22;67235;45.638;11.714;2023-03-01T00:28:59;4.90;62.80
78028;DHT22;67235;45.638;11.714;2023-03-01T00:31:27;5.00;62.80
78028;DHT22;67235;45.638;11.714;2023-03-01T00:33:56;4.90;62.80
78028;DHT22;67235;45.638;11.714;2023-03-01T00:36:27;4.80;62.90
78028;DHT22;67235;45.638;11.714;2023-03-01T00:38:53;5.00;63.20
78028;DHT22;67235;45.638;11.714;2023-03-01T00:41:20;4.80;63.70
78028;DHT22;67235;45.638;11.714;2023-03-01T00:43:48;4.80;63.90
78028;DHT22;67235;45.638;11.714;2023-03-01T00:46:16;4.50;64.40
78028;DHT22;67235;45.638;11.714;2023-03-01T00:48:43;4.50;64.70
78028;DHT22;67235;45.638;11.714;2023-03-01T00:53:37;4.50;64.90
78028;DHT22;67235;45.638;11.714;2023-03-01T00:56:04;4.40;64.60
78028;DHT22;67235;45.638;11.714;2023-03-01T00:58:30;4.20;64.30
78028;DHT22;67235;45.638;11.714;2023-03-01T01:00:56;4.20;64.20
78028;DHT22;67235;45.638;11.714;2023-03-01T01:03:22;3.90;64.00
78028;DHT22;67235;45.638;11.714;2023-03-01T01:05:52;4.10;64.20
78028;DHT22;67235;45.638;11.714;2023-03-01T01:08:19;3.80;64.40
78028;DHT22;67235;45.638;11.714;2023-03-01T01:10:46;3.70;65.10
78028;DHT22;67235;45.638;11.714;2023-03-01T01:13:12;3.80;65.30
78028;DHT22;67235;45.638;11.714;2023-03-01T01:15:38;3.80;65.30
78028;DHT22;67235;45.638;11.714;2023-03-01T01:18:04;3.70;64.20
78028;DHT22;67235;45.638;11.714;2023-03-01T01:20:30;3.50;64.80
78028;DHT22;67235;45.638;11.714;2023-03-01T01:22:56;3.30;65.70
78028;DHT22;67235;45.638;11.714;2023-03-01T01:25:21;3.20;66.10
78028;DHT22;67235;45.638;11.714;2023-03-01T01:27:50;3.40;66.00
78028;DHT22;67235;45.638;11.714;2023-03-01T01:30:17;3.20;66.00
78028;DHT22;67235;45.638;11.714;2023-03-01T01:32:42;3.30;65.70
78028;DHT22;67235;45.638;11.714;2023-03-01T01:35:09;3.40;65.30
78028;DHT22;67235;45.638;11.714;2023-03-01T01:37:35;3.40;65.30
78028;DHT22;67235;45.638;11.714;2023-03-01T01:40:01;3.70;65.20
78028;DHT22;67235;45.638;11.714;2023-03-01T01:42:29;3.60;65.30
78028;DHT22;67235;45.638;11.714;2023-03-01T01:47:54;3.50;65.30
78028;DHT22;67235;45.638;11.714;2023-03-01T01:50:21;3.60;65.70
78028;DHT22;67235;45.638;11.714;2023-03-01T01:52:48;3.60;65.50
78028;DHT22;67235;45.638;11.714;2023-03-01T01:55:19;3.50;65.50
78028;DHT22;67235;45.638;11.714;2023-03-01T01:57:55;3.60;65.70
78028;DHT22;67235;45.638;11.714;2023-03-01T02:00:27;3.60;65.50
78028;DHT22;67235;45.638;11.714;2023-03-01T02:03:23;3.70;65.30
78028;DHT22;67235;45.638;11.714;2023-03-01T02:05:59;3.80;65.30
78028;DHT22;67235;45.638;11.714;2023-03-01T02:08:29;3.60;64.90
78028;DHT22;67235;45.638;11.714;2023-03-01T02:10:57;3.80;64.80
78028;DHT22;67235;45.638;11.714;2023-03-01T02:13:25;3.80;65.10
78028;DHT22;67235;45.638;11.714;2023-03-01T02:15:52;3.80;64.70
78028;DHT22;67235;45.638;11.714;2023-03-01T02:18:20;3.90;65.00
78028;DHT22;67235;45.638;11.714;2023-03-01T02:23:30;3.70;65.00
78028;DHT22;67235;45.638;11.714;2023-03-01T02:28:38;3.70;65.20
78028;DHT22;67235;45.638;11.714;2023-03-01T02:31:09;3.90;65.30
78028;DHT22;67235;45.638;11.714;2023-03-01T02:33:56;3.80;65.30
78028;DHT22;67235;45.638;11.714;2023-03-01T02:36:26;3.70;65.60
78028;DHT22;67235;45.638;11.714;2023-03-01T02:38:58;3.50;65.80
78028;DHT22;67235;45.638;11.714;2023-03-01T02:41:26;3.90;65.70
78028;DHT22;67235;45.638;11.714;2023-03-01T02:43:53;4.00;66.00
78028;DHT22;67235;45.638;11.714;2023-03-01T02:46:22;3.90;65.80
78028;DHT22;67235;45.638;11.714;2023-03-01T02:48:54;3.80;65.80
78028;DHT22;67235;45.638;11.714;2023-03-01T02:56:45;4.20;65.50
78028;DHT22;67235;45.638;11.714;2023-03-01T02:59:19;4.50;65.40
78028;DHT22;67235;45.638;11.714;2023-03-01T03:01:45;4.70;65.10
78028;DHT22;67235;45.638;11.714;2023-03-01T03:04:15;4.60;65.00
78028;DHT22;67235;45.638;11.714;2023-03-01T03:06:46;4.70;64.70
78028;DHT22;67235;45.638;11.714;2023-03-01T03:09:13;4.90;64.70
78028;DHT22;67235;45.638;11.714;2023-03-01T03:11:39;4.90;65.00
78028;DHT22;67235;45.638;11.714;2023-03-01T03:14:09;5.20;64.80
78028;DHT22;67235;45.638;11.714;2023-03-01T03:16:49;5.20;64.60
78028;DHT22;67235;45.638;11.714;2023-03-01T03:19:16;5.10;64.40
78028;DHT22;67235;45.638;11.714;2023-03-01T03:21:43;5.20;64.30
78028;DHT22;67235;45.638;11.714;2023-03-01T03:24:09;5.30;64.40
78028;DHT22;67235;45.638;11.714;2023-03-01T03:26:34;5.10;64.90
78028;DHT22;67235;45.638;11.714;2023-03-01T03:29:00;5.20;64.80
78028;DHT22;67235;45.638;11.714;2023-03-01T03:31:27;5.10;64.70
78028;DHT22;67235;45.638;11.714;2023-03-01T03:33:53;5.20;64.70
78028;DHT22;67235;45.638;11.714;2023-03-01T03:36:21;5.20;65.00
78028;DHT22;67235;45.638;11.714;2023-03-01T03:38:47;5.20;64.60
78028;DHT22;67235;45.638;11.714;2023-03-01T03:41:15;5.30;64.60
78028;DHT22;67235;45.638;11.714;2023-03-01T03:43:41;5.20;64.60
78028;DHT22;67235;45.638;11.714;2023-03-01T03:46:09;5.10;64.80
78028;DHT22;67235;45.638;11.714;2023-03-01T03:48:41;5.10;64.90
78028;DHT22;67235;45.638;11.714;2023-03-01T03:51:11;5.20;64.70
78028;DHT22;67235;45.638;11.714;2023-03-01T03:53:37;4.90;64.70
78028;DHT22;67235;45.638;11.714;2023-03-01T03:56:03;5.00;64.70
78028;DHT22;67235;45.638;11.714;2023-03-01T03:58:29;4.90;64.80
78028;DHT22;67235;45.638;11.714;2023-03-01T04:00:56;4.80;64.60
78028;DHT22;67235;45.638;11.714;2023-03-01T04:03:23;4.80;64.50
78028;DHT22;67235;45.638;11.714;2023-03-01T04:05:51;5.00;64.50
78028;DHT22;67235;45.638;11.714;2023-03-01T04:08:19;4.70;64.60
78028;DHT22;67235;45.638;11.714;2023-03-01T04:10:48;4.90;64.40
78028;DHT22;67235;45.638;11.714;2023-03-01T04:13:20;4.70;64.30
78028;DHT22;67235;45.638;11.714;2023-03-01T04:15:51;4.80;64.50
78028;DHT22;67235;45.638;11.714;2023-03-01T04:18:19;4.40;64.50
78028;DHT22;67235;45.638;11.714;2023-03-01T04:20:46;4.50;64.70
78028;DHT22;67235;45.638;11.714;2023-03-01T04:23:19;3.90;65.00
78028;DHT22;67235;45.638;11.714;2023-03-01T04:25:50;4.20;64.80
78028;DHT22;67235;45.638;11.714;2023-03-01T04:28:24;4.20;64.50
78028;DHT22;67235;45.638;11.714;2023-03-01T04:30:52;4.30;64.50
78028;DHT22;67235;45.638;11.714;2023-03-01T04:33:18;4.40;64.70
78028;DHT22;67235;45.638;11.714;2023-03-01T04:35:44;4.40;64.60
78028;DHT22;67235;45.638;11.714;2023-03-01T04:38:11;4.60;64.60
78028;DHT22;67235;45.638;11.714;2023-03-01T04:40:37;4.50;64.70
78028;DHT22;67235;45.638;11.714;2023-03-01T04:43:03;4.40;64.90
78028;DHT22;67235;45.638;11.714;2023-03-01T04:45:32;4.30;64.90
78028;DHT22;67235;45.638;11.714;2023-03-01T04:47:59;4.20;64.90
78028;DHT22;67235;45.638;11.714;2023-03-01T04:50:25;4.50;65.00
78028;DHT22;67235;45.638;11.714;2023-03-01T04:52:52;4.50;64.60
78028;DHT22;67235;45.638;11.714;2023-03-01T04:55:17;4.50;64.80
78028;DHT22;67235;45.638;11.714;2023-03-01T04:57:44;4.50;64.70
78028;DHT22;67235;45.638;11.714;2023-03-01T05:00:12;4.80;64.70
78028;DHT22;67235;45.638;11.714;2023-03-01T05:03:06;4.60;64.80
78028;DHT22;67235;45.638;11.714;2023-03-01T05:05:34;4.60;65.00
78028;DHT22;67235;45.638;11.714;2023-03-01T05:08:05;4.70;65.30
78028;DHT22;67235;45.638;11.714;2023-03-01T05:10:33;4.70;65.30
78028;DHT22;67235;45.638;11.714;2023-03-01T05:13:01;4.60;65.60
78028;DHT22;67235;45.638;11.714;2023-03-01T05:15:29;4.70;65.80
78028;DHT22;67235;45.638;11.714;2023-03-01T05:17:57;4.60;65.90
78028;DHT22;67235;45.638;11.714;2023-03-01T05:20:25;4.60;65.70
78028;DHT22;67235;45.638;11.714;2023-03-01T05:22:52;4.60;65.30
78028;DHT22;67235;45.638;11.714;2023-03-01T05:25:20;4.50;65.60
78028;DHT22;67235;45.638;11.714;2023-03-01T05:27:48;4.30;66.20
78028;DHT22;67235;45.638;11.714;2023-03-01T05:30:14;4.70;66.20
78028;DHT22;67235;45.638;11.714;2023-03-01T05:32:47;4.40;66.20
78028;DHT22;67235;45.638;11.714;2023-03-01T05:35:14;4.40;66.00
78028;DHT22;67235;45.638;11.714;2023-03-01T05:37:45;4.80;66.10
78028;DHT22;67235;45.638;11.714;2023-03-01T05:40:14;4.70;66.10
78028;DHT22;67235;45.638;11.714;2023-03-01T05:42:49;4.70;66.20
78028;DHT22;67235;45.638;11.714;2023-03-01T05:45:16;4.80;66.50
78028;DHT22;67235;45.638;11.714;2023-03-01T05:47:43;4.70;66.00
78028;DHT22;67235;45.638;11.714;2023-03-01T05:50:15;4.70;65.80
78028;DHT22;67235;45.638;11.714;2023-03-01T05:52:49;4.70;65.90
78028;DHT22;67235;45.638;11.714;2023-03-01T05:55:18;4.50;65.70
78028;DHT22;67235;45.638;11.714;2023-03-01T05:57:44;4.60;65.50
78028;DHT22;67235;45.638;11.714;2023-03-01T06:00:11;4.60;65.60
78028;DHT22;67235;45.638;11.714;2023-03-01T06:02:37;4.60;65.80
78028;DHT22;67235;45.638;11.714;2023-03-01T06:05:04;4.50;65.60
78028;DHT22;67235;45.638;11.714;2023-03-01T06:07:31;4.70;66.40
78028;DHT22;67235;45.638;11.714;2023-03-01T06:09:57;4.80;66.40
78028;DHT22;67235;45.638;11.714;2023-03-01T06:12:23;4.70;66.40
78028;DHT22;67235;45.638;11.714;2023-03-01T06:14:48;5.00;66.60
78028;DHT22;67235;45.638;11.714;2023-03-01T06:17:14;4.90;65.80
78028;DHT22;67235;45.638;11.714;2023-03-01T06:19:40;5.10;65.60
78028;DHT22;67235;45.638;11.714;2023-03-01T06:22:06;5.00;65.90
78028;DHT22;67235;45.638;11.714;2023-03-01T06:24:32;5.30;65.90
78028;DHT22;67235;45.638;11.714;2023-03-01T06:26:58;5.40;65.40
78028;DHT22;67235;45.638;11.714;2023-03-01T06:29:24;5.50;65.20
78028;DHT22;67235;45.638;11.714;2023-03-01T06:31:50;5.40;65.30
78028;DHT22;67235;45.638;11.714;2023-03-01T06:34:16;5.70;64.50
78028;DHT22;67235;45.638;11.714;2023-03-01T06:36:42;5.90;64.60
78028;DHT22;67235;45.638;11.714;2023-03-01T06:39:07;6.00;64.90
78028;DHT22;67235;45.638;11.714;2023-03-01T06:41:33;5.80;64.50
78028;DHT22;67235;45.638;11.714;2023-03-01T06:43:59;6.20;64.00
78028;DHT22;67235;45.638;11.714;2023-03-01T06:46:26;6.10;64.30
78028;DHT22;67235;45.638;11.714;2023-03-01T06:48:53;6.20;64.10
78028;DHT22;67235;45.638;11.714;2023-03-01T06:51:21;6.40;65.10
78028;DHT22;67235;45.638;11.714;2023-03-01T06:53:48;6.60;65.60
78028;DHT22;67235;45.638;11.714;2023-03-01T06:56:14;6.50;65.80
78028;DHT22;67235;45.638;11.714;2023-03-01T06:58:40;6.70;65.60
78028;DHT22;67235;45.638;11.714;2023-03-01T07:01:07;6.80;65.70
78028;DHT22;67235;45.638;11.714;2023-03-01T07:03:33;6.70;65.80
78028;DHT22;67235;45.638;11.714;2023-03-01T07:05:59;6.80;65.60
78028;DHT22;67235;45.638;11.714;2023-03-01T07:08:24;7.00;65.30
78028;DHT22;67235;45.638;11.714;2023-03-01T07:10:57;6.80;65.30
78028;DHT22;67235;45.638;11.714;2023-03-01T07:13:24;7.10;65.50
78028;DHT22;67235;45.638;11.714;2023-03-01T07:15:52;7.10;65.50
78028;DHT22;67235;45.638;11.714;2023-03-01T07:18:19;7.20;65.30
78028;DHT22;67235;45.638;11.714;2023-03-01T07:20:45;7.40;64.80
78028;DHT22;67235;45.638;11.714;2023-03-01T07:23:14;7.60;64.30
78028;DHT22;67235;45.638;11.714;2023-03-01T07:25:40;7.60;65.10
78028;DHT22;67235;45.638;11.714;2023-03-01T07:28:06;7.80;64.80
78028;DHT22;67235;45.638;11.714;2023-03-01T07:30:33;7.90;64.80
78028;DHT22;67235;45.638;11.714;2023-03-01T07:32:59;8.10;64.60
78028;DHT22;67235;45.638;11.714;2023-03-01T07:35:26;8.20;64.40
78028;DHT22;67235;45.638;11.714;2023-03-01T07:37:53;8.50;64.00
78028;DHT22;67235;45.638;11.714;2023-03-01T07:40:20;8.70;63.60
78028;DHT22;67235;45.638;11.714;2023-03-01T07:42:46;8.90;62.40
78028;DHT22;67235;45.638;11.714;2023-03-01T07:45:12;8.70;62.30
78028;DHT22;67235;45.638;11.714;2023-03-01T07:47:39;8.70;62.80
78028;DHT22;67235;45.638;11.714;2023-03-01T07:50:05;9.00;62.40
78028;DHT22;67235;45.638;11.714;2023-03-01T07:52:31;9.10;62.10
78028;DHT22;67235;45.638;11.714;2023-03-01T07:55:00;9.20;62.30
78028;DHT22;67235;45.638;11.714;2023-03-01T07:57:28;9.50;62.40
78028;DHT22;67235;45.638;11.714;2023-03-01T07:59:54;10.00;45.50
78028;DHT22;67235;45.638;11.714;2023-03-01T08:02:20;10.60;45.00
78028;DHT22;67235;45.638;11.714;2023-03-01T08:04:49;10.90;44.30
78028;DHT22;67235;45.638;11.714;2023-03-01T08:07:17;11.00;41.90
78028;DHT22;67235;45.638;11.714;2023-03-01T08:09:43;10.90;42.80
78028;DHT22;67235;45.638;11.714;2023-03-01T08:12:10;10.90;41.80
78028;DHT22;67235;45.638;11.714;2023-03-01T08:14:36;11.10;43.30
78028;DHT22;67235;45.638;11.714;2023-03-01T08:17:02;11.10;44.30
78028;DHT22;67235;45.638;11.714;2023-03-01T08:19:28;11.30;44.20
78028;DHT22;67235;45.638;11.714;2023-03-01T08:21:54;11.10;42.60
78028;DHT22;67235;45.638;11.714;2023-03-01T08:24:23;11.10;42.40
78028;DHT22;67235;45.638;11.714;2023-03-01T08:26:50;11.00;42.90
78028;DHT22;67235;45.638;11.714;2023-03-01T08:29:15;11.20;42.20
78028;DHT22;67235;45.638;11.714;2023-03-01T08:31:41;11.20;41.60
78028;DHT22;67235;45.638;11.714;2023-03-01T08:34:11;11.40;42.30
78028;DHT22;67235;45.638;11.714;2023-03-01T08:36:39;11.60;41.30
78028;DHT22;67235;45.638;11.714;2023-03-01T08:39:06;11.80;41.90
78028;DHT22;67235;45.638;11.714;2023-03-01T08:41:32;11.90;40.40
78028;DHT22;67235;45.638;11.714;2023-03-01T08:43:58;11.70;39.30
78028;DHT22;67235;45.638;11.714;2023-03-01T08:46:29;11.70;39.70
78028;DHT22;67235;45.638;11.714;2023-03-01T08:48:55;11.50;41.00
78028;DHT22;67235;45.638;11.714;2023-03-01T08:51:22;11.50;40.40
78028;DHT22;67235;45.638;11.714;2023-03-01T08:53:49;11.50;40.00
78028;DHT22;67235;45.638;11.714;2023-03-01T08:56:16;11.70;40.30
78028;DHT22;67235;45.638;11.714;2023-03-01T08:58:46;11.70;39.90
78028;DHT22;67235;45.638;11.714;2023-03-01T09:01:15;11.40;39.00
78028;DHT22;67235;45.638;11.714;2023-03-01T09:03:41;11.20;39.30
78028;DHT22;67235;45.638;11.714;2023-03-01T09:06:08;11.30;39.10
78028;DHT22;67235;45.638;11.714;2023-03-01T09:08:38;11.50;39.60
78028;DHT22;67235;45.638;11.714;2023-03-01T09:11:06;12.20;38.50
78028;DHT22;67235;45.638;11.714;2023-03-01T09:13:33;12.20;36.60
78028;DHT22;67235;45.638;11.714;2023-03-01T09:16:02;12.60;36.10
78028;DHT22;67235;45.638;11.714;2023-03-01T09:18:30;12.80;33.30
78028;DHT22;67235;45.638;11.714;2023-03-01T09:21:05;13.00;34.30
78028;DHT22;67235;45.638;11.714;2023-03-01T09:23:35;12.80;34.50
78028;DHT22;67235;45.638;11.714;2023-03-01T09:26:08;13.20;33.70
78028;DHT22;67235;45.638;11.714;2023-03-01T09:28:36;13.60;32.50
78028;DHT22;67235;45.638;11.714;2023-03-01T09:31:02;14.50;32.00
78028;DHT22;67235;45.638;11.714;2023-03-01T09:33:29;15.90;29.30
78028;DHT22;67235;45.638;11.714;2023-03-01T09:36:04;17.20;26.20
78028;DHT22;67235;45.638;11.714;2023-03-01T09:38:31;18.10;25.10
78028;DHT22;67235;45.638;11.714;2023-03-01T09:40:57;18.40;21.50
78028;DHT22;67235;45.638;11.714;2023-03-01T09:43:49;18.90;27.80
78028;DHT22;67235;45.638;11.714;2023-03-01T09:46:22;19.00;25.30
78028;DHT22;67235;45.638;11.714;2023-03-01T09:48:58;19.10;20.90
78028;DHT22;67235;45.638;11.714;2023-03-01T09:51:35;18.20;21.20
78028;DHT22;67235;45.638;11.714;2023-03-01T09:54:03;17.80;21.90
78028;DHT22;67235;45.638;11.714;2023-03-01T09:56:39;17.50;22.20
78028;DHT22;67235;45.638;11.714;2023-03-01T09:59:23;17.20;23.00
78028;DHT22;67235;45.638;11.714;2023-03-01T10:04:28;16.40;24.70
78028;DHT22;67235;45.638;11.714;2023-03-01T10:07:21;16.30;24.10
78028;DHT22;67235;45.638;11.714;2023-03-01T10:09:52;17.10;24.60
78028;DHT22;67235;45.638;11.714;2023-03-01T10:12:26;17.80;23.10
78028;DHT22;67235;45.638;11.714;2023-03-01T10:15:10;18.00;22.70
78028;DHT22;67235;45.638;11.714;2023-03-01T10:17:51;18.10;22.40
78028;DHT22;67235;45.638;11.714;2023-03-01T10:23:26;17.20;24.30
78028;DHT22;67235;45.638;11.714;2023-03-01T10:30:51;17.80;22.70
78028;DHT22;67235;45.638;11.714;2023-03-01T10:33:24;16.60;23.90
78028;DHT22;67235;45.638;11.714;2023-03-01T10:35:51;15.60;25.90
78028;DHT22;67235;45.638;11.714;2023-03-01T10:38:20;15.00;30.30
78028;DHT22;67235;45.638;11.714;2023-03-01T10:40:59;14.80;29.70
78028;DHT22;67235;45.638;11.714;2023-03-01T10:43:40;14.90;28.20
78028;DHT22;67235;45.638;11.714;2023-03-01T10:46:28;14.90;29.10
78028;DHT22;67235;45.638;11.714;2023-03-01T10:49:17;15.30;28.70
78028;DHT22;67235;45.638;11.714;2023-03-01T10:51:46;14.90;30.40
78028;DHT22;67235;45.638;11.714;2023-03-01T10:54:28;14.70;29.90
78028;DHT22;67235;45.638;11.714;2023-03-01T10:56:56;14.50;30.90
78028;DHT22;67235;45.638;11.714;2023-03-01T11:04:36;14.00;32.40
78028;DHT22;67235;45.638;11.714;2023-03-01T11:07:02;13.70;33.00
78028;DHT22;67235;45.638;11.714;2023-03-01T11:09:33;13.50;33.90
78028;DHT22;67235;45.638;11.714;2023-03-01T11:12:13;13.60;33.90
78028;DHT22;67235;45.638;11.714;2023-03-01T11:14:52;13.60;33.50
78028;DHT22;67235;45.638;11.714;2023-03-01T11:22:54;13.60;34.60
78028;DHT22;67235;45.638;11.714;2023-03-01T11:25:30;13.50;34.20
78028;DHT22;67235;45.638;11.714;2023-03-01T11:27:59;13.60;35.80
78028;DHT22;67235;45.638;11.714;2023-03-01T11:33:11;13.40;36.20
78028;DHT22;67235;45.638;11.714;2023-03-01T11:35:55;13.50;36.30
78028;DHT22;67235;45.638;11.714;2023-03-01T11:38:25;13.30;34.90
78028;DHT22;67235;45.638;11.714;2023-03-01T11:41:08;13.20;36.10
78028;DHT22;67235;45.638;11.714;2023-03-01T11:57:04;12.80;33.60
78028;DHT22;67235;45.638;11.714;2023-03-01T12:00:20;12.80;33.90
78028;DHT22;67235;45.638;11.714;2023-03-01T12:03:00;12.90;33.30
78028;DHT22;67235;45.638;11.714;2023-03-01T12:05:48;13.00;33.90
78028;DHT22;67235;45.638;11.714;2023-03-01T12:10:50;12.90;32.00
78028;DHT22;67235;45.638;11.714;2023-03-01T12:14:01;12.70;33.50
78028;DHT22;67235;45.638;11.714;2023-03-01T12:19:43;12.80;33.20
78028;DHT22;67235;45.638;11.714;2023-03-01T12:22:30;12.80;34.10
78028;DHT22;67235;45.638;11.714;2023-03-01T12:25:18;12.60;34.50
78028;DHT22;67235;45.638;11.714;2023-03-01T12:28:19;12.60;34.70
78028;DHT22;67235;45.638;11.714;2023-03-01T12:50:32;12.00;36.20
78028;DHT22;67235;45.638;11.714;2023-03-01T12:53:02;12.00;36.80
78028;DHT22;67235;45.638;11.714;2023-03-01T12:55:38;12.00;37.40
78028;DHT22;67235;45.638;11.714;2023-03-01T13:12:48;11.80;38.10
78028;DHT22;67235;45.638;11.714;2023-03-01T13:15:35;11.80;38.90
78028;DHT22;67235;45.638;11.714;2023-03-01T13:20:57;11.20;42.20
78028;DHT22;67235;45.638;11.714;2023-03-01T13:23:28;11.10;44.30
78028;DHT22;67235;45.638;11.714;2023-03-01T13:31:57;10.20;62.30
78028;DHT22;67235;45.638;11.714;2023-03-01T13:34:06;10.10;63.00
78028;DHT22;67235;45.638;11.714;2023-03-01T13:36:50;10.00;63.70
78028;DHT22;67235;45.638;11.714;2023-03-01T13:39:39;9.90;64.20
78028;DHT22;67235;45.638;11.714;2023-03-01T13:48:01;9.90;65.10
78028;DHT22;67235;45.638;11.714;2023-03-01T13:50:38;9.90;64.40
78028;DHT22;67235;45.638;11.714;2023-03-01T13:53:24;9.90;65.30
78028;DHT22;67235;45.638;11.714;2023-03-01T13:55:56;9.90;65.10
78028;DHT22;67235;45.638;11.714;2023-03-01T13:58:26;10.00;64.20
78028;DHT22;67235;45.638;11.714;2023-03-01T14:01:34;10.10;64.30
78028;DHT22;67235;45.638;11.714;2023-03-01T14:04:21;10.20;64.30
78028;DHT22;67235;45.638;11.714;2023-03-01T14:06:52;10.20;63.50
78028;DHT22;67235;45.638;11.714;2023-03-01T14:09:39;10.30;63.90
78028;DHT22;67235;45.638;11.714;2023-03-01T14:15:06;10.50;63.20
78028;DHT22;67235;45.638;11.714;2023-03-01T14:20:07;10.60;63.90
78028;DHT22;67235;45.638;11.714;2023-03-01T14:22:49;10.70;63.90
78028;DHT22;67235;45.638;11.714;2023-03-01T14:25:29;10.80;63.40
78028;DHT22;67235;45.638;11.714;2023-03-01T14:28:11;10.90;63.70
78028;DHT22;67235;45.638;11.714;2023-03-01T14:30:43;10.90;63.70
78028;DHT22;67235;45.638;11.714;2023-03-01T14:33:29;10.90;64.00
78028;DHT22;67235;45.638;11.714;2023-03-01T14:36:13;11.00;64.10
78028;DHT22;67235;45.638;11.714;2023-03-01T14:38:58;11.00;63.70
78028;DHT22;67235;45.638;11.714;2023-03-01T14:41:35;11.10;63.60
78028;DHT22;67235;45.638;11.714;2023-03-01T14:44:06;11.00;63.50
78028;DHT22;67235;45.638;11.714;2023-03-01T14:46:39;11.10;63.40
78028;DHT22;67235;45.638;11.714;2023-03-01T14:49:20;11.10;63.00
78028;DHT22;67235;45.638;11.714;2023-03-01T14:52:05;11.10;63.00
78028;DHT22;67235;45.638;11.714;2023-03-01T14:54:44;11.20;63.20
78028;DHT22;67235;45.638;11.714;2023-03-01T14:57:26;11.10;62.70
78028;DHT22;67235;45.638;11.714;2023-03-01T14:59:54;11.20;62.80
78028;DHT22;67235;45.638;11.714;2023-03-01T15:02:25;11.10;62.40
78028;DHT22;67235;45.638;11.714;2023-03-01T15:04:57;11.20;62.20
78028;DHT22;67235;45.638;11.714;2023-03-01T15:07:31;11.10;62.30
78028;DHT22;67235;45.638;11.714;2023-03-01T15:10:00;11.00;62.30
78028;DHT22;67235;45.638;11.714;2023-03-01T15:14:58;11.10;62.40
78028;DHT22;67235;45.638;11.714;2023-03-01T15:17:44;11.00;62.70
78028;DHT22;67235;45.638;11.714;2023-03-01T15:20:18;11.00;62.20
78028;DHT22;67235;45.638;11.714;2023-03-01T15:22:47;11.00;62.20
78028;DHT22;67235;45.638;11.714;2023-03-01T15:25:20;11.10;62.60
78028;DHT22;67235;45.638;11.714;2023-03-01T15:27:48;11.00;62.20
78028;DHT22;67235;45.638;11.714;2023-03-01T15:30:40;11.10;62.50
78028;DHT22;67235;45.638;11.714;2023-03-01T15:35:54;11.00;62.50
78028;DHT22;67235;45.638;11.714;2023-03-01T15:38:36;11.10;62.30
78028;DHT22;67235;45.638;11.714;2023-03-01T15:43:48;11.00;62.50
78028;DHT22;67235;45.638;11.714;2023-03-01T15:48:54;11.10;62.40
78028;DHT22;67235;45.638;11.714;2023-03-01T15:51:27;11.00;63.00
78028;DHT22;67235;45.638;11.714;2023-03-01T15:53:55;10.90;62.40
78028;DHT22;67235;45.638;11.714;2023-03-01T15:56:21;11.00;62.60
78028;DHT22;67235;45.638;11.714;2023-03-01T15:58:48;11.00;62.20
78028;DHT22;67235;45.638;11.714;2023-03-01T16:01:15;11.00;62.40
78028;DHT22;67235;45.638;11.714;2023-03-01T16:03:45;11.00;62.30
78028;DHT22;67235;45.638;11.714;2023-03-01T16:06:11;11.00;62.20
78028;DHT22;67235;45.638;11.714;2023-03-01T16:08:38;11.00;62.10
78028;DHT22;67235;45.638;11.714;2023-03-01T16:11:16;11.00;62.50
78028;DHT22;67235;45.638;11.714;2023-03-01T16:13:43;10.90;62.60
78028;DHT22;67235;45.638;11.714;2023-03-01T16:16:11;11.00;62.70
78028;DHT22;67235;45.638;11.714;2023-03-01T16:18:41;10.70;62.60
78028;DHT22;67235;45.638;11.714;2023-03-01T16:21:20;10.80;62.70
78028;DHT22;67235;45.638;11.714;2023-03-01T16:23:46;10.80;62.90
78028;DHT22;67235;45.638;11.714;2023-03-01T16:26:12;10.60;62.80
78028;DHT22;67235;45.638;11.714;2023-03-01T16:28:40;10.50;63.40
78028;DHT22;67235;45.638;11.714;2023-03-01T16:31:05;10.40;63.60
78028;DHT22;67235;45.638;11.714;2023-03-01T16:33:31;10.30;64.20
78028;DHT22;67235;45.638;11.714;2023-03-01T16:36:09;10.20;64.50
78028;DHT22;67235;45.638;11.714;2023-03-01T16:38:35;10.20;64.40
78028;DHT22;67235;45.638;11.714;2023-03-01T16:41:01;10.00;65.10
78028;DHT22;67235;45.638;11.714;2023-03-01T16:43:27;10.00;66.00
78028;DHT22;67235;45.638;11.714;2023-03-01T16:45:52;9.90;65.50
78028;DHT22;67235;45.638;11.714;2023-03-01T16:48:18;9.70;66.50
78028;DHT22;67235;45.638;11.714;2023-03-01T16:50:44;9.70;66.50
78028;DHT22;67235;45.638;11.714;2023-03-01T16:53:10;9.60;67.70
78028;DHT22;67235;45.638;11.714;2023-03-01T16:55:36;9.60;67.80
78028;DHT22;67235;45.638;11.714;2023-03-01T16:58:03;10.20;68.60
78028;DHT22;67235;45.638;11.714;2023-03-01T17:00:29;10.00;67.10
78028;DHT22;67235;45.638;11.714;2023-03-01T17:02:55;9.80;67.40
78028;DHT22;67235;45.638;11.714;2023-03-01T17:05:22;9.70;67.80
78028;DHT22;67235;45.638;11.714;2023-03-01T17:07:49;9.60;68.20
78028;DHT22;67235;45.638;11.714;2023-03-01T17:10:15;9.60;68.30
78028;DHT22;67235;45.638;11.714;2023-03-01T17:12:41;9.50;68.30
78028;DHT22;67235;45.638;11.714;2023-03-01T17:15:07;9.50;68.30
78028;DHT22;67235;45.638;11.714;2023-03-01T17:17:33;9.40;68.50
78028;DHT22;67235;45.638;11.714;2023-03-01T17:20:00;9.40;68.70
78028;DHT22;67235;45.638;11.714;2023-03-01T17:22:25;9.50;68.70
78028;DHT22;67235;45.638;11.714;2023-03-01T17:24:51;9.40;68.50
78028;DHT22;67235;45.638;11.714;2023-03-01T17:27:17;9.40;68.90
78028;DHT22;67235;45.638;11.714;2023-03-01T17:29:44;9.40;68.80
78028;DHT22;67235;45.638;11.714;2023-03-01T17:32:10;9.40;68.90
78028;DHT22;67235;45.638;11.714;2023-03-01T17:34:36;9.40;69.00
78028;DHT22;67235;45.638;11.714;2023-03-01T17:37:04;9.40;68.90
78028;DHT22;67235;45.638;11.714;2023-03-01T17:39:30;9.40;69.00
78028;DHT22;67235;45.638;11.714;2023-03-01T17:42:01;9.30;68.90
78028;DHT22;67235;45.638;11.714;2023-03-01T17:44:26;9.30;69.10
78028;DHT22;67235;45.638;11.714;2023-03-01T17:46:52;9.20;69.00
78028;DHT22;67235;45.638;11.714;2023-03-01T17:49:18;9.20;69.40